createdAt,value
2023-06-29T00:02:03.676Z,2.22
2023-06-29T00:04:33.885Z,2.38
2023-06-29T00:07:04.164Z,2.70
2023-06-29T00:09:31.612Z,2.33
2023-06-29T00:11:59.004Z,2.60
2023-06-29T00:14:26.323Z,2.67
2023-06-29T00:16:53.770Z,2.63
2023-06-29T00:19:22.150Z,2.58
2023-06-29T00:21:49.634Z,2.40
2023-06-29T00:24:16.951Z,2.58
2023-06-29T00:26:44.326Z,2.60
2023-06-29T00:29:11.676Z,2.90
2023-06-29T00:31:38.943Z,2.65
2023-06-29T00:34:06.426Z,2.70
2023-06-29T00:36:33.873Z,2.33
2023-06-29T00:39:01.235Z,2.60
2023-06-29T00:41:28.499Z,2.60
2023-06-29T00:43:56.427Z,2.33
2023-06-29T00:46:25.499Z,2.50
2023-06-29T00:48:53.340Z,2.83
2023-06-29T00:51:21.496Z,2.22
2023-06-29T00:53:48.898Z,1.90
2023-06-29T00:56:16.275Z,2.53
2023-06-29T00:58:44.814Z,2.88
2023-06-29T01:01:12.176Z,2.42
2023-06-29T01:03:41.728Z,2.47
2023-06-29T01:06:14.902Z,2.40
2023-06-29T01:08:47.233Z,2.90
2023-06-29T01:11:16.101Z,2.65
2023-06-29T01:13:44.772Z,2.20
2023-06-29T01:16:15.427Z,2.83
2023-06-29T01:18:46.367Z,2.53
2023-06-29T01:21:15.903Z,2.30
2023-06-29T01:23:46.408Z,2.70
2023-06-29T01:26:13.984Z,2.42
2023-06-29T01:28:41.278Z,2.42
2023-06-29T01:31:10.821Z,2.58
2023-06-29T01:33:38.328Z,2.72
2023-06-29T01:36:18.527Z,2.47
2023-06-29T01:39:18.167Z,2.28
2023-06-29T01:41:46.798Z,2.42
2023-06-29T01:44:17.222Z,2.50
2023-06-29T01:46:45.124Z,2.35
2023-06-29T01:49:14.553Z,2.70
2023-06-29T01:51:41.866Z,2.55
2023-06-29T01:54:09.170Z,2.45
2023-06-29T01:56:36.439Z,2.50
2023-06-29T01:59:04.390Z,2.00
2023-06-29T02:01:31.901Z,2.05
2023-06-29T02:04:01.025Z,2.72
2023-06-29T02:06:28.299Z,3.03
2023-06-29T02:08:55.824Z,2.60
2023-06-29T02:11:23.112Z,2.88
2023-06-29T02:13:50.518Z,2.70
2023-06-29T02:16:17.923Z,2.22
2023-06-29T02:18:45.225Z,2.38
2023-06-29T02:21:12.489Z,2.92
2023-06-29T02:23:39.744Z,2.78
2023-06-29T02:26:07.377Z,2.40
2023-06-29T02:28:37.295Z,2.70
2023-06-29T02:31:04.712Z,2.75
2023-06-29T02:33:32.239Z,2.60
2023-06-29T02:35:59.591Z,2.47
2023-06-29T02:38:26.915Z,2.58
2023-06-29T02:40:54.355Z,2.47
2023-06-29T02:43:21.726Z,2.63
2023-06-29T02:45:49.017Z,2.47
2023-06-29T02:48:16.355Z,2.65
2023-06-29T02:50:43.682Z,2.53
2023-06-29T02:53:14.708Z,2.80
2023-06-29T02:55:42.218Z,2.55
2023-06-29T02:58:10.026Z,2.38
2023-06-29T03:00:38.110Z,2.88
2023-06-29T03:03:05.617Z,2.42
2023-06-29T03:05:33.440Z,2.35
2023-06-29T03:08:04.812Z,2.80
2023-06-29T03:10:32.186Z,2.83
2023-06-29T03:12:59.582Z,2.85
2023-06-29T03:15:26.941Z,2.60
2023-06-29T03:17:54.420Z,2.72
2023-06-29T03:20:21.846Z,2.75
2023-06-29T03:22:49.186Z,2.55
2023-06-29T03:25:16.572Z,2.78
2023-06-29T03:27:43.926Z,2.50
2023-06-29T03:30:11.852Z,2.50
2023-06-29T03:32:39.250Z,2.72
2023-06-29T03:35:08.587Z,2.90
2023-06-29T03:37:35.953Z,3.00
2023-06-29T03:40:03.264Z,2.63
2023-06-29T03:42:30.670Z,3.33
2023-06-29T03:44:57.992Z,2.83
2023-06-29T03:47:25.556Z,3.10
2023-06-29T03:49:53.005Z,2.90
2023-06-29T03:52:20.339Z,3.15
2023-06-29T03:54:50.028Z,3.47
2023-06-29T03:57:17.445Z,3.45
2023-06-29T03:59:44.851Z,3.08
2023-06-29T04:02:12.706Z,3.10
2023-06-29T04:04:40.225Z,2.95
2023-06-29T04:07:07.609Z,3.10
2023-06-29T04:09:35.066Z,3.47
2023-06-29T04:12:02.409Z,3.35
2023-06-29T04:14:29.744Z,2.63
2023-06-29T04:16:58.443Z,3.75
2023-06-29T04:19:25.821Z,3.42
2023-06-29T04:21:53.204Z,2.90
2023-06-29T04:24:20.509Z,3.03
2023-06-29T04:26:47.889Z,2.60
2023-06-29T04:29:15.506Z,2.95
2023-06-29T04:31:42.952Z,3.00
2023-06-29T04:34:10.206Z,3.13
2023-06-29T04:36:37.512Z,2.58
2023-06-29T04:39:05.227Z,3.20
2023-06-29T04:41:32.717Z,2.92
2023-06-29T04:44:00.994Z,2.92
2023-06-29T04:46:32.490Z,3.05
2023-06-29T04:49:06.291Z,3.10
2023-06-29T04:51:37.917Z,2.70
2023-06-29T04:54:06.814Z,3.00
2023-06-29T04:56:34.335Z,3.00
2023-06-29T04:59:01.637Z,3.83
2023-06-29T05:01:29.000Z,3.40
2023-06-29T05:03:56.363Z,3.35
2023-06-29T05:06:23.692Z,2.95
2023-06-29T05:08:51.102Z,3.25
2023-06-29T05:11:18.395Z,3.22
2023-06-29T05:13:45.632Z,3.63
2023-06-29T05:16:13.523Z,3.42
2023-06-29T05:18:40.820Z,3.55
2023-06-29T05:21:08.878Z,4.30
2023-06-29T05:23:36.240Z,3.25
2023-06-29T05:26:03.527Z,3.60
2023-06-29T05:28:30.852Z,3.90
2023-06-29T05:30:58.246Z,3.58
2023-06-29T05:33:25.578Z,3.85
2023-06-29T05:35:52.934Z,3.20
2023-06-29T05:38:20.322Z,3.25
2023-06-29T05:40:47.657Z,3.67
2023-06-29T05:43:15.009Z,3.72
2023-06-29T05:45:42.307Z,3.45
2023-06-29T05:48:09.667Z,3.50
2023-06-29T05:50:37.060Z,3.55
2023-06-29T05:53:05.332Z,3.20
2023-06-29T05:55:33.086Z,3.67
2023-06-29T05:58:00.423Z,3.42
2023-06-29T06:00:28.020Z,3.65
2023-06-29T06:02:55.432Z,3.53
2023-06-29T06:05:22.827Z,3.70
2023-06-29T06:07:50.092Z,2.92
2023-06-29T06:10:17.479Z,2.97
2023-06-29T06:12:44.835Z,3.35
2023-06-29T06:15:15.249Z,3.47
2023-06-29T06:17:42.723Z,2.88
2023-06-29T06:20:10.950Z,3.40
2023-06-29T06:22:38.269Z,3.40
2023-06-29T06:25:06.107Z,3.45
2023-06-29T06:27:33.524Z,3.20
2023-06-29T06:30:00.984Z,3.83
2023-06-29T06:32:28.411Z,3.25
2023-06-29T06:34:55.859Z,3.38
2023-06-29T06:37:23.291Z,3.47
2023-06-29T06:39:50.700Z,3.47
2023-06-29T06:42:18.049Z,3.13
2023-06-29T06:44:57.036Z,2.85
2023-06-29T06:47:24.630Z,2.67
2023-06-29T06:49:52.046Z,2.70
2023-06-29T06:52:19.302Z,3.03
2023-06-29T06:54:46.679Z,3.05
2023-06-29T06:57:14.083Z,2.75
2023-06-29T06:59:41.450Z,2.47
2023-06-29T07:02:09.002Z,2.60
2023-06-29T07:04:36.370Z,3.05
2023-06-29T07:07:04.741Z,2.58
2023-06-29T07:09:32.130Z,2.30
2023-06-29T07:12:00.547Z,2.05
2023-06-29T07:14:28.051Z,2.58
2023-06-29T07:16:56.818Z,2.63
2023-06-29T07:24:25.962Z,2.10
2023-06-29T07:26:53.793Z,1.92
2023-06-29T07:29:21.250Z,2.00
2023-06-29T07:31:48.497Z,1.88
2023-06-29T07:34:15.798Z,1.90
2023-06-29T07:36:43.064Z,1.83
2023-06-29T07:39:10.433Z,1.95
2023-06-29T07:41:37.785Z,1.75
2023-06-29T07:44:05.282Z,1.65
2023-06-29T07:46:33.139Z,1.67
2023-06-29T07:49:00.628Z,1.88
2023-06-29T07:51:33.350Z,1.95
2023-06-29T07:58:39.286Z,1.70
2023-06-29T07:59:17.583Z,1.58
2023-06-29T08:01:49.659Z,1.50
2023-06-29T08:04:17.719Z,1.30
2023-06-29T08:07:08.597Z,1.25
2023-06-29T08:09:37.202Z,1.20
2023-06-29T08:12:04.890Z,1.30
2023-06-29T08:14:34.027Z,1.30
2023-06-29T08:17:01.466Z,1.63
2023-06-29T08:19:28.928Z,1.63
2023-06-29T08:21:56.700Z,1.30
2023-06-29T08:24:24.796Z,1.50
2023-06-29T08:26:52.208Z,1.35
2023-06-29T08:29:20.602Z,1.02
2023-06-29T08:31:48.201Z,1.27
2023-06-29T08:34:15.738Z,1.67
2023-06-29T08:36:43.360Z,1.42
2023-06-29T08:39:11.408Z,1.48
2023-06-29T08:41:38.804Z,1.38
2023-06-29T08:44:07.400Z,1.60
2023-06-29T08:46:37.273Z,1.25
2023-06-29T08:49:07.792Z,1.73
2023-06-29T08:51:40.096Z,1.70
2023-06-29T08:54:08.290Z,1.60
2023-06-29T08:56:36.169Z,1.73
2023-06-29T08:59:03.753Z,1.40
2023-06-29T09:01:32.115Z,1.70
2023-06-29T09:03:59.815Z,1.60
2023-06-29T09:06:29.943Z,1.58
2023-06-29T09:08:57.503Z,1.73
2023-06-29T09:11:25.059Z,1.70
2023-06-29T09:13:52.496Z,1.73
2023-06-29T09:16:19.988Z,1.60
2023-06-29T09:18:52.290Z,1.38
2023-06-29T09:21:22.303Z,1.75
2023-06-29T09:23:51.656Z,1.90
2023-06-29T09:26:19.135Z,1.80
2023-06-29T09:28:47.871Z,1.65
2023-06-29T09:31:15.375Z,1.50
2023-06-29T09:33:42.770Z,1.60
2023-06-29T09:36:10.149Z,1.50
2023-06-29T09:38:38.784Z,1.65
2023-06-29T09:41:08.263Z,1.40
2023-06-29T09:43:35.596Z,1.58
2023-06-29T09:46:06.415Z,2.10
2023-06-29T09:51:06.130Z,1.90
2023-06-29T09:53:34.515Z,1.60
2023-06-29T09:56:04.037Z,1.60
2023-06-29T09:58:31.945Z,1.92
2023-06-29T10:01:01.216Z,1.70
2023-06-29T10:03:29.372Z,1.95
2023-06-29T10:06:07.781Z,1.58
2023-06-29T10:08:36.977Z,1.50
2023-06-29T10:11:05.482Z,1.55
2023-06-29T10:13:44.214Z,1.38
2023-06-29T10:16:13.523Z,1.83
2023-06-29T10:18:45.285Z,1.77
2023-06-29T10:21:12.865Z,1.80
2023-06-29T10:23:42.541Z,1.50
2023-06-29T10:26:12.142Z,2.00
2023-06-29T10:28:39.911Z,1.70
2023-06-29T10:31:07.361Z,1.65
2023-06-29T10:33:46.857Z,2.05
2023-06-29T10:36:16.845Z,1.60
2023-06-29T10:38:45.581Z,1.65
2023-06-29T10:41:29.711Z,1.55
2023-06-29T10:43:58.076Z,1.40
2023-06-29T10:46:50.791Z,1.98
2023-06-29T10:49:26.593Z,1.50
2023-06-29T10:51:56.072Z,1.85
2023-06-29T10:54:28.054Z,1.60
2023-06-29T10:57:06.761Z,1.83
2023-06-29T10:59:35.630Z,1.38
2023-06-29T11:02:04.730Z,1.33
2023-06-29T11:04:32.621Z,1.63
2023-06-29T11:07:08.433Z,1.83
2023-06-29T11:09:36.191Z,1.60
2023-06-29T11:12:03.924Z,1.92
2023-06-29T11:14:38.072Z,1.80
2023-06-29T11:17:09.151Z,1.50
2023-06-29T11:19:36.456Z,1.77
2023-06-29T11:22:03.943Z,1.85
2023-06-29T11:24:31.539Z,1.80
2023-06-29T11:26:59.453Z,1.88
2023-06-29T11:29:29.411Z,1.60
2023-06-29T11:31:56.790Z,1.60
2023-06-29T11:34:24.093Z,1.95
2023-06-29T11:39:39.013Z,2.05
2023-06-29T11:42:10.281Z,2.00
2023-06-29T11:44:37.795Z,2.08
2023-06-29T11:47:25.524Z,1.75
2023-06-29T11:49:55.429Z,1.73
2023-06-29T11:52:23.466Z,1.70
2023-06-29T11:54:51.194Z,1.80
2023-06-29T11:57:19.131Z,1.90
2023-06-29T11:59:46.740Z,1.88
2023-06-29T12:02:17.006Z,1.90
2023-06-29T12:04:58.478Z,1.67
2023-06-29T12:07:43.053Z,2.05
2023-06-29T12:10:17.461Z,2.30
2023-06-29T12:12:46.478Z,2.05
2023-06-29T12:15:21.172Z,1.73
2023-06-29T12:20:23.384Z,2.22
2023-06-29T12:22:54.668Z,2.10
2023-06-29T12:25:23.349Z,2.08
2023-06-29T12:27:51.469Z,2.28
2023-06-29T12:30:22.417Z,2.33
2023-06-29T12:32:51.987Z,1.92
2023-06-29T12:35:19.944Z,1.92
2023-06-29T12:37:47.291Z,2.08
2023-06-29T12:40:16.469Z,1.95
2023-06-29T12:42:43.915Z,2.13
2023-06-29T12:45:11.452Z,1.92
2023-06-29T12:47:40.625Z,1.95
2023-06-29T12:50:08.470Z,2.08
2023-06-29T12:52:35.777Z,1.98
2023-06-29T12:55:03.239Z,1.85
2023-06-29T12:57:30.616Z,2.03
2023-06-29T12:59:59.001Z,2.30
2023-06-29T13:02:27.341Z,2.05
2023-06-29T13:04:54.752Z,2.30
2023-06-29T13:07:24.500Z,1.98
2023-06-29T13:09:55.253Z,2.55
2023-06-29T13:12:22.619Z,2.13
2023-06-29T13:14:51.338Z,2.00
2023-06-29T13:17:19.760Z,2.00
2023-06-29T13:19:49.085Z,2.03
2023-06-29T13:22:19.544Z,2.25
2023-06-29T13:24:48.139Z,2.00
2023-06-29T13:27:15.703Z,2.05
2023-06-29T13:29:43.243Z,2.78
2023-06-29T13:32:10.784Z,2.17
2023-06-29T13:34:38.253Z,2.38
2023-06-29T13:37:05.799Z,2.13
2023-06-29T13:39:33.155Z,2.20
2023-06-29T13:42:00.632Z,2.17
2023-06-29T13:44:28.124Z,1.90
2023-06-29T13:46:55.502Z,2.15
2023-06-29T13:49:22.846Z,2.40
2023-06-29T13:51:50.227Z,1.88
2023-06-29T13:54:17.542Z,2.15
2023-06-29T13:56:44.903Z,1.80
2023-06-29T13:59:12.321Z,1.60
2023-06-29T14:01:41.400Z,2.13
2023-06-29T14:04:11.298Z,2.00
2023-06-29T14:06:41.644Z,1.83
2023-06-29T14:09:11.129Z,2.03
2023-06-29T14:11:38.701Z,1.60
2023-06-29T14:14:06.098Z,1.80
2023-06-29T14:16:33.858Z,2.15
2023-06-29T14:19:01.476Z,2.63
2023-06-29T14:21:29.126Z,1.90
2023-06-29T14:23:56.916Z,1.92
2023-06-29T14:26:24.518Z,2.00
2023-06-29T14:28:51.948Z,2.05
2023-06-29T14:31:19.484Z,1.80
2023-06-29T14:33:47.353Z,1.98
2023-06-29T14:36:14.903Z,1.85
2023-06-29T14:38:42.725Z,2.00
2023-06-29T14:41:10.109Z,1.95
2023-06-29T14:43:37.760Z,2.03
2023-06-29T14:46:05.260Z,2.00
2023-06-29T14:48:32.679Z,1.80
2023-06-29T14:51:00.053Z,2.00
2023-06-29T14:53:27.371Z,2.08
2023-06-29T14:56:11.250Z,2.00
2023-06-29T14:58:39.269Z,1.85
2023-06-29T15:01:06.957Z,1.95
2023-06-29T15:03:34.633Z,1.60
2023-06-29T15:06:02.143Z,1.70
2023-06-29T15:08:29.660Z,1.70
2023-06-29T15:10:56.950Z,1.48
2023-06-29T15:13:24.405Z,1.83
2023-06-29T15:15:51.869Z,1.75
2023-06-29T15:18:19.447Z,1.73
2023-06-29T15:20:48.815Z,1.70
2023-06-29T15:23:16.439Z,1.60
2023-06-29T15:25:46.107Z,1.80
2023-06-29T15:28:13.790Z,1.75
2023-06-29T15:30:52.966Z,2.05
2023-06-29T15:33:21.615Z,1.63
2023-06-29T15:35:49.747Z,2.13
2023-06-29T15:38:22.402Z,1.92
2023-06-29T15:40:51.573Z,1.42
2023-06-29T15:43:19.041Z,1.90
2023-06-29T15:45:46.729Z,1.90
2023-06-29T15:48:15.905Z,1.88
2023-06-29T15:50:43.508Z,1.67
2023-06-29T15:53:11.177Z,1.60
2023-06-29T15:55:38.699Z,1.45
2023-06-29T15:58:06.024Z,1.70
2023-06-29T16:00:33.297Z,1.60
2023-06-29T16:03:00.770Z,1.63
2023-06-29T16:05:28.761Z,1.48
2023-06-29T16:07:57.782Z,1.55
2023-06-29T16:10:25.185Z,1.38
2023-06-29T16:12:52.512Z,1.85
2023-06-29T16:15:19.929Z,1.90
2023-06-29T16:17:47.401Z,1.70
2023-06-29T16:20:14.775Z,1.73
2023-06-29T16:22:42.111Z,1.80
2023-06-29T16:25:09.713Z,1.95
2023-06-29T16:27:37.044Z,1.75
2023-06-29T16:30:04.779Z,1.50
2023-06-29T16:32:32.164Z,1.83
2023-06-29T16:34:59.644Z,1.65
2023-06-29T16:37:27.089Z,1.80
2023-06-29T16:39:54.503Z,1.55
2023-06-29T16:42:21.840Z,1.23
2023-06-29T16:44:49.174Z,1.55
2023-06-29T16:47:16.670Z,1.70
2023-06-29T16:49:44.006Z,1.63
2023-06-29T16:52:11.616Z,1.88
2023-06-29T16:54:38.951Z,1.58
2023-06-29T16:57:07.041Z,1.50
2023-06-29T16:59:34.430Z,1.55
2023-06-29T17:02:01.753Z,1.52
2023-06-29T17:04:31.440Z,1.60
2023-06-29T17:06:58.786Z,1.27
2023-06-29T17:09:26.172Z,2.10
2023-06-29T17:11:53.524Z,1.50
2023-06-29T17:14:20.899Z,1.27
2023-06-29T17:16:48.501Z,1.40
2023-06-29T17:19:15.935Z,1.70
2023-06-29T17:21:43.250Z,1.67
2023-06-29T17:24:10.574Z,1.48
2023-06-29T17:26:37.960Z,1.42
2023-06-29T17:29:06.526Z,1.67
2023-06-29T17:31:35.042Z,1.40
2023-06-29T17:34:02.475Z,1.33
2023-06-29T17:36:30.031Z,1.65
2023-06-29T17:38:57.334Z,1.40
2023-06-29T17:41:24.772Z,1.30
2023-06-29T17:43:52.372Z,1.20
2023-06-29T17:46:20.383Z,1.33
2023-06-29T17:48:47.884Z,1.20
2023-06-29T17:51:17.621Z,1.52
2023-06-29T17:53:47.106Z,1.27
2023-06-29T17:56:16.477Z,1.80
2023-06-29T17:58:44.981Z,1.83
2023-06-29T18:01:13.177Z,1.27
2023-06-29T18:03:41.831Z,1.40
2023-06-29T18:06:09.923Z,1.48
2023-06-29T18:08:37.244Z,1.30
2023-06-29T18:11:04.714Z,1.50
2023-06-29T18:13:32.173Z,1.58
2023-06-29T18:15:59.606Z,1.50
2023-06-29T18:18:27.001Z,1.50
2023-06-29T18:20:54.365Z,1.30
2023-06-29T18:23:21.918Z,1.45
2023-06-29T18:25:49.368Z,1.30
2023-06-29T18:28:16.788Z,1.33
2023-06-29T18:30:44.276Z,1.80
2023-06-29T18:33:11.869Z,1.20
2023-06-29T18:35:39.301Z,1.60
2023-06-29T18:38:06.685Z,1.20
2023-06-29T18:40:34.135Z,1.38
2023-06-29T18:43:01.631Z,1.50
2023-06-29T18:45:30.854Z,1.30
2023-06-29T18:47:58.347Z,1.50
2023-06-29T18:50:25.912Z,1.20
2023-06-29T18:52:55.151Z,1.30
2023-06-29T18:55:22.622Z,1.33
2023-06-29T18:57:50.114Z,1.40
2023-06-29T19:00:17.845Z,1.25
2023-06-29T19:02:45.442Z,1.30
2023-06-29T19:05:13.019Z,1.52
2023-06-29T19:07:40.589Z,1.65
2023-06-29T19:10:08.621Z,1.20
2023-06-29T19:12:36.087Z,1.25
2023-06-29T19:15:04.792Z,1.35
2023-06-29T19:17:32.473Z,1.40
2023-06-29T19:20:00.084Z,1.30
2023-06-29T19:22:27.647Z,1.25
2023-06-29T19:24:55.251Z,1.30
2023-06-29T19:27:22.736Z,1.73
2023-06-29T19:29:50.899Z,1.10
2023-06-29T19:32:18.435Z,1.33
2023-06-29T19:34:46.034Z,1.10
2023-06-29T19:37:13.630Z,1.05
2023-06-29T19:39:41.147Z,1.50
2023-06-29T19:42:09.684Z,1.30
2023-06-29T19:44:37.257Z,1.08
2023-06-29T19:47:04.938Z,1.20
2023-06-29T19:49:32.377Z,1.35
2023-06-29T19:52:00.155Z,1.17
2023-06-29T19:54:27.514Z,1.10
2023-06-29T19:56:55.220Z,1.20
2023-06-29T19:59:22.701Z,1.27
2023-06-29T20:01:50.203Z,1.02
2023-06-29T20:04:17.712Z,1.30
2023-06-29T20:06:47.136Z,1.08
2023-06-29T20:09:14.513Z,1.33
2023-06-29T20:11:42.052Z,1.20
2023-06-29T20:14:09.624Z,1.00
2023-06-29T20:16:37.095Z,1.40
2023-06-29T20:19:04.642Z,1.30
2023-06-29T20:21:32.139Z,1.30
2023-06-29T20:23:59.645Z,1.20
2023-06-29T20:26:27.720Z,1.40
2023-06-29T20:28:56.644Z,1.27
2023-06-29T20:31:24.174Z,1.30
2023-06-29T20:33:51.682Z,1.05
2023-06-29T20:36:19.074Z,1.20
2023-06-29T20:38:46.469Z,1.27
2023-06-29T20:41:13.873Z,1.10
2023-06-29T20:43:47.147Z,1.13
2023-06-29T20:46:18.552Z,1.30
2023-06-29T20:48:46.006Z,1.35
2023-06-29T20:51:18.191Z,1.42
2023-06-29T20:53:50.586Z,1.10
2023-06-29T20:56:22.055Z,1.35
2023-06-29T20:58:49.633Z,1.48
2023-06-29T21:01:17.213Z,1.48
2023-06-29T21:03:47.197Z,0.77
2023-06-29T21:06:14.478Z,1.48
2023-06-29T21:08:42.164Z,1.27
2023-06-29T21:11:09.987Z,1.35
2023-06-29T21:13:37.738Z,1.08
2023-06-29T21:16:05.449Z,1.30
2023-06-29T21:18:33.055Z,1.52
2023-06-29T21:21:00.813Z,1.23
2023-06-29T21:23:28.243Z,1.05
2023-06-29T21:25:56.132Z,1.20
2023-06-29T21:28:24.092Z,1.48
2023-06-29T21:30:51.718Z,1.35
2023-06-29T21:33:19.404Z,1.40
2023-06-29T21:35:47.222Z,1.40
2023-06-29T21:38:14.988Z,1.27
2023-06-29T21:40:42.376Z,1.10
2023-06-29T21:43:09.766Z,1.38
2023-06-29T21:45:37.103Z,1.10
2023-06-29T21:48:04.985Z,1.27
2023-06-29T21:50:34.676Z,1.67
2023-06-29T21:53:02.226Z,1.17
2023-06-29T21:55:29.570Z,1.00
2023-06-29T21:57:57.511Z,1.17
2023-06-29T22:00:24.947Z,0.90
2023-06-29T22:02:53.799Z,1.38
2023-06-29T22:05:23.055Z,1.27
2023-06-29T22:07:50.451Z,1.30
2023-06-29T22:10:18.034Z,1.40
2023-06-29T22:12:45.496Z,1.98
2023-06-29T22:15:14.229Z,2.20
2023-06-29T22:17:42.387Z,1.63
2023-06-29T22:20:24.287Z,1.63
2023-06-29T22:22:51.718Z,1.73
2023-06-29T22:25:19.062Z,1.90
2023-06-29T22:27:46.436Z,1.75
2023-06-29T22:30:13.904Z,2.08
2023-06-29T22:32:43.411Z,1.73
2023-06-29T22:35:14.257Z,1.85
2023-06-29T22:37:41.620Z,1.80
2023-06-29T22:40:10.098Z,1.85
2023-06-29T22:42:37.415Z,1.90
2023-06-29T22:45:05.010Z,2.28
2023-06-29T22:47:32.363Z,2.08
2023-06-29T22:49:59.836Z,1.98
2023-06-29T22:52:27.117Z,1.98
2023-06-29T22:54:54.462Z,2.13
2023-06-29T22:57:22.603Z,2.20
2023-06-29T22:59:50.804Z,2.70
2023-06-29T23:02:18.377Z,2.28
2023-06-29T23:04:45.925Z,1.83
2023-06-29T23:07:13.940Z,2.30
2023-06-29T23:09:41.272Z,2.20
2023-06-29T23:12:09.579Z,2.22
2023-06-29T23:14:38.161Z,2.10
2023-06-29T23:17:05.996Z,2.33
2023-06-29T23:19:35.347Z,2.22
2023-06-29T23:22:04.072Z,2.40
2023-06-29T23:24:31.892Z,2.38
2023-06-29T23:26:59.170Z,1.90
2023-06-29T23:29:26.412Z,2.50
2023-06-29T23:31:54.519Z,2.00
2023-06-29T23:34:25.021Z,2.05
2023-06-29T23:36:52.436Z,1.80
2023-06-29T23:39:20.886Z,2.42
2023-06-29T23:41:49.124Z,2.40
2023-06-29T23:44:16.513Z,2.42
2023-06-29T23:46:46.241Z,2.22
2023-06-29T23:49:15.870Z,2.20
2023-06-29T23:51:43.648Z,2.13
2023-06-29T23:54:11.726Z,2.10
2023-06-29T23:56:40.033Z,1.70
2023-06-29T23:59:08.129Z,2.03
